This is the latest recevied weather packets stored in our database for station/object IZ4UFQ-10. If no packets are shown the sender has not sent any weather packets the latest 1 day(s).
| Time | Temp. | Humidity | Pressure | Rain* | Wind** | Luminosity | Snow |
|---|---|---|---|---|---|---|---|
| 1777995096 | 20° C | 78% | 1011.1 hPa | 0 mm | 0 m/s | 109 W/m² | - |
| 1777994796 | 20° C | 78% | 1011.1 hPa | 0 mm | 0 m/s | 160 W/m² | - |
| 1777994495 | 20° C | 77% | 1011.1 hPa | 0 mm | 0 m/s | 278 W/m² | - |
| 1777994195 | 20° C | 78% | 1011.1 hPa | 0 mm | 0 m/s | 262 W/m² | - |
| 1777993895 | 20° C | 78% | 1011 hPa | 0 mm | 0 m/s | 615 W/m² | - |
| 1777993594 | 19.44° C | 79% | 1011.1 hPa | 0 mm | 0 m/s | 561 W/m² | - |
| 1777993294 | 19.44° C | 79% | 1011.2 hPa | 0 mm | 0 m/s | 130 W/m² | - |
| 1777992994 | 19.44° C | 79% | 1011.2 hPa | 0 mm | 0 m/s | 142 W/m² | - |
| 1777992694 | 19.44° C | 79% | 1011.2 hPa | 0 mm | 0 m/s | 120 W/m² | - |
| 1777992393 | 20° C | 78% | 1011.2 hPa | 0 mm | 0 m/s | 135 W/m² | - |
| 1777992093 | 20° C | 78% | 1011.2 hPa | 0 mm | 0 m/s | 162 W/m² | - |
| 1777991793 | 20° C | 77% | 1011.1 hPa | 0 mm | 0 m/s | 192 W/m² | - |
| 1777991492 | 20° C | 77% | 1011.1 hPa | 0 mm | 0 m/s | 169 W/m² | - |
| 1777991192 | 20° C | 77% | 1011.2 hPa | 0 mm | 0 m/s | 167 W/m² | - |
| 1777990892 | 20° C | 77% | 1011.2 hPa | 0 mm | 0 m/s | 195 W/m² | - |
| 1777990592 | 20° C | 77% | 1011.1 hPa | 0 mm | 0 m/s | 195 W/m² | - |
| 1777990291 | 20° C | 76% | 1011.1 hPa | 0 mm | 0 m/s | 172 W/m² | - |
| 1777989991 | 20° C | 76% | 1011.1 hPa | 0 mm | 0 m/s | 216 W/m² | - |
| 1777989691 | 20.56° C | 75% | 1011.1 hPa | 0 mm | 0 m/s | 167 W/m² | - |
| 1777989390 | 20.56° C | 75% | 1011.2 hPa | 0 mm | 0 m/s | 227 W/m² | - |
| 1777989090 | 21.11° C | 74% | 1011.3 hPa | 0 mm | 0 m/s | 197 W/m² | - |
| 1777988790 | 20.56° C | 74% | 1011.2 hPa | 0 mm | 0 m/s | 911 W/m² | - |
| 1777988490 | 20.56° C | 75% | 1011.2 hPa | 0 mm | 0 m/s | 861 W/m² | - |
| 1777988189 | 20.56° C | 76% | 1011.2 hPa | 0.25 mm | 0 m/s | 851 W/m² | - |
| 1777987889 | 20° C | 77% | 1011.4 hPa | 0.25 mm | 0 m/s | 838 W/m² | - |
* Rain latest hour (hover to see other rain measurements)
** Current wind speed in m/s (hover to see current wind gust speed)